Time;durP1;ratioP1;P1;durP2;ratioP2;P2;SDS_P1;SDS_P2;PMS_P1;PMS_P2;Temp;Humidity;BMP_temperature;BMP_pressure;BME280_temperature;BME280_humidity;BME280_pressure;Samples;Min_cycle;Max_cycle;Signal;HPM_P1;HPM_P2
2022/03/31 00:00:35;;;;;;;2.47;0.90;;;2.10;99.90;;;;;;5052363;28;20045;-71
2022/03/31 00:03:04;;;;;;;3.33;1.05;;;2.10;99.90;;;;;;5052475;28;20033;-71
2022/03/31 00:05:30;;;;;;;3.45;1.00;;;2.10;99.90;;;;;;5034638;28;20037;-71
2022/03/31 00:08:03;;;;;;;7.93;1.67;;;2.10;99.90;;;;;;5051401;28;20116;-71
2022/03/31 00:10:34;;;;;;;3.17;1.10;;;2.10;99.90;;;;;;5048855;28;20044;-71
2022/03/31 00:13:02;;;;;;;3.25;0.90;;;2.10;99.90;;;;;;5051324;28;20059;-71
2022/03/31 00:15:29;;;;;;;5.45;1.23;;;2.10;99.90;;;;;;5050922;28;20132;-71
2022/03/31 00:17:58;;;;;;;5.80;1.20;;;2.10;99.90;;;;;;5050937;28;20044;-71
2022/03/31 00:23:47;;;;;;;5.18;1.25;;;2.20;99.90;;;;;;5056081;28;20049;-71
2022/03/31 00:26:14;;;;;;;3.97;1.10;;;2.20;99.90;;;;;;5037819;28;20053;-72
2022/03/31 00:28:40;;;;;;;4.93;1.20;;;2.20;99.90;;;;;;5054561;28;20494;-71
2022/03/31 00:31:05;;;;;;;5.10;2.30;;;2.30;99.90;;;;;;5071556;28;20136;-71
2022/03/31 00:33:32;;;;;;;2.38;0.93;;;2.30;99.90;;;;;;5088485;28;20536;-71
2022/03/31 00:35:58;;;;;;;4.32;1.38;;;2.30;99.90;;;;;;5071114;28;20041;-71
2022/03/31 00:38:24;;;;;;;3.75;1.30;;;2.30;99.90;;;;;;5053727;28;20048;-71
2022/03/31 00:40:51;;;;;;;3.78;1.23;;;2.30;99.90;;;;;;5052767;28;20052;-71
2022/03/31 00:43:17;;;;;;;2.60;1.20;;;2.30;99.90;;;;;;5037665;28;20037;-71
2022/03/31 00:45:51;;;;;;;7.95;2.22;;;2.40;99.90;;;;;;5055444;28;20045;-72
2022/03/31 00:48:19;;;;;;;5.93;1.30;;;2.40;99.90;;;;;;5055636;28;20041;-71
2022/03/31 00:50:46;;;;;;;3.60;1.10;;;2.40;99.90;;;;;;5070861;28;20056;-71
2022/03/31 00:53:12;;;;;;;3.28;1.20;;;2.40;99.90;;;;;;5087623;28;20504;-71
2022/03/31 00:55:38;;;;;;;4.00;1.15;;;2.40;99.90;;;;;;5037427;28;20130;-72
2022/03/31 00:58:05;;;;;;;4.30;1.77;;;2.40;99.90;;;;;;5054199;28;20048;-71
2022/03/31 01:00:31;;;;;;;6.18;1.67;;;2.40;99.90;;;;;;5055352;28;20041;-71
2022/03/31 01:02:57;;;;;;;2.10;1.30;;;2.40;99.90;;;;;;5037561;28;20041;-71
2022/03/31 01:05:23;;;;;;;4.70;1.35;;;2.50;99.90;;;;;;5070908;28;20083;-71
2022/03/31 01:07:49;;;;;;;7.40;2.45;;;2.50;99.90;;;;;;5055204;28;20049;-71
2022/03/31 01:10:15;;;;;;;6.32;1.55;;;2.50;99.90;;;;;;5052997;28;20120;-71
2022/03/31 01:12:42;;;;;;;7.30;1.38;;;2.50;99.90;;;;;;5050108;28;20052;-71
2022/03/31 01:15:09;;;;;;;5.07;1.70;;;2.50;99.90;;;;;;5033845;28;20045;-71
2022/03/31 01:17:38;;;;;;;7.35;1.30;;;2.50;99.90;;;;;;5033797;28;20052;-71
2022/03/31 01:20:07;;;;;;;4.75;1.48;;;2.50;99.90;;;;;;5033886;28;20120;-71
2022/03/31 01:22:34;;;;;;;4.90;1.63;;;2.50;99.90;;;;;;5035008;28;20076;-71
2022/03/31 01:25:01;;;;;;;5.60;1.50;;;2.60;99.90;;;;;;5034702;28;20054;-71
2022/03/31 01:27:27;;;;;;;4.13;1.40;;;2.60;99.90;;;;;;5067130;28;20084;-71
2022/03/31 01:29:53;;;;;;;3.22;1.60;;;2.60;99.90;;;;;;5050410;28;20115;-71
2022/03/31 01:32:20;;;;;;;2.10;1.20;;;2.60;99.90;;;;;;5033816;28;20045;-71
2022/03/31 01:34:46;;;;;;;5.80;1.70;;;2.60;99.90;;;;;;5034394;28;20452;-71
2022/03/31 01:37:14;;;;;;;7.53;2.00;;;2.60;99.90;;;;;;5034719;28;20470;-70
2022/03/31 01:39:41;;;;;;;4.72;1.63;;;2.60;99.90;;;;;;5064503;28;20160;-71
2022/03/31 01:42:08;;;;;;;5.70;1.58;;;2.60;99.90;;;;;;5034502;28;20125;-71
2022/03/31 01:44:35;;;;;;;5.55;1.40;;;2.60;99.90;;;;;;5035853;28;20478;-71
2022/03/31 01:47:01;;;;;;;6.07;1.50;;;2.60;99.90;;;;;;5066420;28;20494;-71
2022/03/31 01:49:27;;;;;;;7.68;1.45;;;2.70;99.90;;;;;;5049893;28;20053;-71
2022/03/31 01:51:53;;;;;;;5.93;1.60;;;2.60;99.90;;;;;;5033332;28;20053;-70
2022/03/31 01:54:19;;;;;;;5.65;1.73;;;2.60;99.90;;;;;;5033236;28;20084;-70
2022/03/31 01:56:45;;;;;;;5.93;1.75;;;2.60;99.90;;;;;;5034254;28;20630;-70
2022/03/31 01:59:11;;;;;;;2.72;1.20;;;2.60;99.90;;;;;;5034414;28;20057;-70
2022/03/31 02:01:37;;;;;;;7.82;3.20;;;2.60;99.90;;;;;;5066449;28;20088;-70
2022/03/31 02:04:03;;;;;;;3.72;1.75;;;2.60;99.90;;;;;;5033043;28;20033;-71
2022/03/31 02:06:29;;;;;;;5.75;2.20;;;2.60;99.90;;;;;;5016261;28;20486;-71
2022/03/31 02:08:56;;;;;;;5.40;1.48;;;2.60;99.90;;;;;;5030780;28;20099;-70
2022/03/31 02:11:22;;;;;;;9.57;2.17;;;2.70;99.90;;;;;;5033927;28;20124;-70
2022/03/31 02:13:48;;;;;;;4.47;1.80;;;2.70;99.90;;;;;;5048533;28;20041;-70
2022/03/31 02:16:14;;;;;;;8.68;1.70;;;2.70;99.90;;;;;;5036218;28;20106;-70
2022/03/31 02:18:41;;;;;;;4.75;1.65;;;2.70;99.90;;;;;;5053878;28;20036;-71
2022/03/31 02:21:07;;;;;;;6.20;1.95;;;2.70;99.90;;;;;;5035824;28;20052;-71
2022/03/31 02:23:33;;;;;;;8.40;2.03;;;2.70;99.90;;;;;;5052494;28;20123;-71
2022/03/31 02:25:59;;;;;;;8.90;1.67;;;2.70;99.90;;;;;;5053589;28;20131;-71
2022/03/31 02:28:25;;;;;;;4.57;1.65;;;2.80;99.90;;;;;;5036068;28;20045;-71
2022/03/31 02:30:50;;;;;;;4.50;1.55;;;2.80;99.90;;;;;;5069379;28;20392;-71
2022/03/31 02:33:16;;;;;;;4.85;1.70;;;2.80;99.90;;;;;;5035749;28;20397;-71
2022/03/31 02:35:42;;;;;;;6.55;2.08;;;2.80;99.90;;;;;;5052266;28;20045;-70
2022/03/31 02:38:08;;;;;;;4.55;2.20;;;2.80;99.90;;;;;;5035610;28;20186;-70
2022/03/31 02:40:34;;;;;;;7.25;1.95;;;2.90;99.90;;;;;;5049947;28;20045;-70
2022/03/31 02:42:59;;;;;;;4.32;2.05;;;2.80;99.90;;;;;;5068866;28;20037;-70
2022/03/31 02:45:25;;;;;;;6.07;1.92;;;2.80;99.90;;;;;;5052733;28;20076;-70
2022/03/31 02:47:51;;;;;;;9.52;1.90;;;2.80;99.90;;;;;;5065663;28;20048;-70
2022/03/31 02:50:18;;;;;;;3.50;2.28;;;2.90;99.90;;;;;;5035596;28;20051;-70
2022/03/31 02:55:38;;;;;;;6.05;1.90;;;2.90;99.90;;;;;;5043855;28;20053;-70
2022/03/31 02:58:05;;;;;;;4.18;1.73;;;2.90;99.90;;;;;;5085872;28;20041;-71
2022/03/31 03:00:37;;;;;;;7.35;2.00;;;2.90;99.90;;;;;;5051746;28;20124;-70
2022/03/31 03:03:04;;;;;;;7.57;2.28;;;2.90;99.90;;;;;;5085202;28;20045;-70
2022/03/31 03:05:31;;;;;;;7.97;2.08;;;2.90;99.90;;;;;;5085112;28;20037;-70
2022/03/31 03:07:57;;;;;;;7.78;1.88;;;3.00;99.90;;;;;;5085204;28;20134;-71
2022/03/31 03:10:23;;;;;;;5.30;1.77;;;3.00;99.90;;;;;;5066262;28;20072;-70
2022/03/31 03:12:51;;;;;;;5.20;2.70;;;2.90;99.90;;;;;;5062226;28;20077;-70
2022/03/31 03:15:18;;;;;;;9.63;2.00;;;2.90;99.90;;;;;;5064957;28;20053;-70
2022/03/31 03:17:45;;;;;;;5.28;2.67;;;2.90;99.90;;;;;;5031788;28;20084;-70
2022/03/31 03:20:13;;;;;;;7.03;2.17;;;2.90;99.90;;;;;;5031662;28;20049;-70
2022/03/31 03:22:43;;;;;;;4.32;1.88;;;2.90;99.90;;;;;;5032960;28;20120;-70
2022/03/31 03:25:11;;;;;;;5.13;2.42;;;2.90;99.90;;;;;;5032620;28;20062;-71
2022/03/31 03:27:38;;;;;;;6.65;2.22;;;2.90;99.90;;;;;;5064830;28;20072;-71
2022/03/31 03:30:06;;;;;;;7.45;2.25;;;2.90;99.90;;;;;;5031560;28;20468;-71
2022/03/31 03:32:36;;;;;;;6.60;2.22;;;2.90;99.90;;;;;;5047969;28;20052;-71
2022/03/31 03:35:02;;;;;;;6.55;2.10;;;2.90;99.90;;;;;;5064672;28;20041;-71
2022/03/31 03:37:28;;;;;;;5.47;2.22;;;2.90;99.90;;;;;;5032587;28;20037;-71
2022/03/31 03:39:54;;;;;;;6.63;2.42;;;2.90;99.90;;;;;;5029304;28;20048;-71
2022/03/31 03:42:20;;;;;;;5.47;2.50;;;2.90;99.90;;;;;;5031305;28;20558;-72
2022/03/31 03:44:46;;;;;;;5.18;2.10;;;2.80;99.90;;;;;;5032557;28;20042;-72
2022/03/31 03:47:11;;;;;;;6.40;1.90;;;2.80;99.90;;;;;;5031658;28;20091;-72
2022/03/31 03:49:37;;;;;;;4.10;2.28;;;2.80;99.90;;;;;;5047821;28;20406;-72
2022/03/31 03:52:04;;;;;;;6.85;3.05;;;2.80;99.90;;;;;;5064553;28;20052;-72
2022/03/31 03:54:30;;;;;;;6.43;2.90;;;2.80;99.90;;;;;;5031424;28;20053;-72
2022/03/31 03:56:56;;;;;;;8.35;3.55;;;2.80;99.90;;;;;;5032631;28;20053;-72
2022/03/31 03:59:22;;;;;;;10.18;4.90;;;2.80;99.90;;;;;;5035070;28;20053;-72
2022/03/31 04:01:48;;;;;;;9.85;3.85;;;2.70;99.90;;;;;;5035196;28;20106;-71
2022/03/31 04:04:14;;;;;;;7.60;4.32;;;2.70;99.90;;;;;;5035317;28;20116;-72
2022/03/31 04:06:40;;;;;;;11.40;5.10;;;2.70;99.90;;;;;;5068628;28;20045;-71
2022/03/31 04:09:05;;;;;;;8.18;5.07;;;2.70;99.90;;;;;;5032813;28;20122;-71
2022/03/31 04:11:31;;;;;;;7.70;4.68;;;2.70;99.90;;;;;;5036287;28;20048;-71
2022/03/31 04:13:57;;;;;;;8.95;4.78;;;2.70;99.90;;;;;;5067006;28;20033;-72
2022/03/31 04:16:23;;;;;;;9.10;4.00;;;2.70;99.90;;;;;;5056317;28;20032;-71
2022/03/31 04:18:48;;;;;;;7.78;4.55;;;2.70;99.90;;;;;;5056105;28;20048;-71
2022/03/31 04:21:14;;;;;;;6.05;4.10;;;2.60;99.90;;;;;;5054911;28;20041;-71
2022/03/31 04:23:41;;;;;;;7.38;4.43;;;2.60;99.90;;;;;;5056003;28;20037;-71
2022/03/31 04:26:06;;;;;;;6.32;3.88;;;2.60;99.90;;;;;;5055814;28;20112;-71
2022/03/31 04:28:32;;;;;;;7.97;4.50;;;2.60;99.90;;;;;;5054794;28;20045;-71
2022/03/31 04:30:58;;;;;;;11.30;5.00;;;2.60;99.90;;;;;;5054750;28;20673;-71
2022/03/31 04:33:26;;;;;;;6.20;3.63;;;2.60;99.90;;;;;;5054472;28;20049;-71
2022/03/31 04:35:52;;;;;;;9.48;3.70;;;2.60;99.90;;;;;;5055828;28;20037;-71
2022/03/31 04:38:18;;;;;;;7.30;3.53;;;2.50;99.90;;;;;;5088225;28;20393;-71
2022/03/31 04:40:43;;;;;;;4.75;3.20;;;2.50;99.90;;;;;;5053371;28;20041;-71
2022/03/31 04:43:09;;;;;;;7.68;4.00;;;2.40;99.90;;;;;;5054267;28;20037;-71
2022/03/31 04:45:35;;;;;;;7.53;3.85;;;2.40;99.90;;;;;;5055818;28;20373;-71
2022/03/31 04:48:01;;;;;;;6.57;3.90;;;2.40;99.90;;;;;;5055714;28;20033;-71
2022/03/31 04:50:27;;;;;;;6.72;4.35;;;2.40;99.90;;;;;;5038058;28;20131;-71
2022/03/31 04:52:52;;;;;;;7.53;4.53;;;2.40;99.90;;;;;;5054151;28;20423;-71
2022/03/31 04:55:18;;;;;;;6.78;4.25;;;2.40;99.90;;;;;;5037511;28;20052;-71
2022/03/31 04:57:44;;;;;;;8.85;4.88;;;2.40;99.90;;;;;;5054217;28;20045;-71
2022/03/31 05:00:10;;;;;;;6.35;4.55;;;2.40;99.90;;;;;;5053925;28;20403;-71
2022/03/31 05:02:36;;;;;;;6.00;4.53;;;2.40;99.90;;;;;;5070765;28;20056;-71
2022/03/31 05:05:02;;;;;;;6.78;4.80;;;2.40;99.90;;;;;;5055197;28;20033;-71
2022/03/31 05:07:28;;;;;;;7.30;4.95;;;2.50;99.90;;;;;;5037519;28;20033;-71
2022/03/31 05:09:54;;;;;;;7.68;5.43;;;2.50;99.90;;;;;;5050830;28;20519;-71
2022/03/31 05:12:20;;;;;;;8.57;5.75;;;2.60;99.90;;;;;;5037135;28;20052;-71
2022/03/31 05:14:46;;;;;;;6.90;4.88;;;2.60;99.90;;;;;;5053804;28;20049;-71
2022/03/31 05:17:11;;;;;;;7.88;5.18;;;2.60;99.90;;;;;;5055065;28;20148;-71
2022/03/31 05:19:38;;;;;;;7.32;4.88;;;2.60;99.90;;;;;;5053658;28;20045;-71
2022/03/31 05:22:05;;;;;;;7.47;5.07;;;2.70;99.90;;;;;;5055035;28;20405;-71
2022/03/31 05:24:31;;;;;;;7.63;5.35;;;2.70;99.90;;;;;;5054715;28;20080;-71
2022/03/31 05:26:57;;;;;;;8.77;5.40;;;2.70;99.90;;;;;;5054789;28;20087;-71
2022/03/31 05:29:23;;;;;;;8.65;6.05;;;2.80;99.90;;;;;;5053676;28;20051;-72
2022/03/31 05:31:49;;;;;;;9.38;5.90;;;2.80;99.90;;;;;;5037004;28;20056;-71
2022/03/31 05:34:15;;;;;;;7.30;5.40;;;2.80;99.90;;;;;;5054647;28;20110;-71
2022/03/31 05:36:41;;;;;;;8.93;6.03;;;2.80;99.90;;;;;;5053434;28;20044;-71
2022/03/31 05:39:07;;;;;;;8.68;6.28;;;2.80;99.90;;;;;;5052306;28;20140;-71
2022/03/31 05:41:34;;;;;;;7.93;5.80;;;2.80;99.90;;;;;;5050300;28;20040;-71
2022/03/31 05:44:00;;;;;;;8.40;6.07;;;2.80;99.90;;;;;;5054552;28;20060;-72
2022/03/31 05:46:26;;;;;;;9.45;6.13;;;2.80;99.90;;;;;;5036845;28;20139;-71
2022/03/31 05:48:53;;;;;;;8.00;5.85;;;2.90;99.90;;;;;;5053059;28;20508;-72
2022/03/31 05:51:18;;;;;;;7.65;5.93;;;2.90;99.90;;;;;;5053114;28;20602;-72
2022/03/31 05:53:44;;;;;;;7.50;5.45;;;2.90;99.90;;;;;;5054173;28;20044;-71
2022/03/31 05:56:11;;;;;;;7.57;6.07;;;2.90;99.90;;;;;;5054222;28;20033;-72
2022/03/31 05:58:36;;;;;;;11.82;9.57;;;2.80;99.90;;;;;;5054402;28;20029;-72
2022/03/31 06:01:04;;;;;;;12.82;10.60;;;2.80;99.90;;;;;;5054232;28;20056;-71
2022/03/31 06:03:30;;;;;;;14.43;11.80;;;2.80;99.90;;;;;;5036230;28;20076;-71
2022/03/31 06:05:56;;;;;;;16.50;11.48;;;2.80;99.90;;;;;;5053054;28;20037;-71
2022/03/31 06:08:22;;;;;;;14.10;11.10;;;2.80;99.90;;;;;;5052812;28;20059;-71
2022/03/31 06:10:48;;;;;;;16.77;12.50;;;2.80;99.90;;;;;;5050499;28;20049;-71
2022/03/31 06:13:14;;;;;;;14.63;10.55;;;2.80;99.90;;;;;;5052547;28;20128;-71
2022/03/31 06:15:41;;;;;;;14.07;11.15;;;2.70;99.90;;;;;;5052535;28;20045;-71
2022/03/31 06:18:07;;;;;;;15.40;12.25;;;2.80;99.90;;;;;;5086141;28;20106;-72
2022/03/31 06:20:36;;;;;;;16.67;12.35;;;2.80;99.90;;;;;;5086296;28;20082;-71
2022/03/31 06:23:03;;;;;;;14.32;11.38;;;2.80;99.90;;;;;;5068987;28;20058;-71
2022/03/31 06:25:30;;;;;;;13.55;11.07;;;2.80;99.90;;;;;;5038203;28;20060;-71
2022/03/31 06:27:57;;;;;;;15.02;10.93;;;2.80;99.90;;;;;;5054017;28;20051;-71
2022/03/31 06:30:23;;;;;;;14.23;10.07;;;2.80;99.90;;;;;;5068976;28;20547;-70
2022/03/31 06:32:48;;;;;;;14.60;11.00;;;2.90;99.90;;;;;;5085931;28;20052;-71
2022/03/31 06:35:15;;;;;;;13.52;10.05;;;2.90;99.90;;;;;;5068832;28;20048;-70
2022/03/31 06:37:45;;;;;;;13.10;10.70;;;2.90;99.90;;;;;;5052222;28;20484;-71
2022/03/31 06:40:13;;;;;;;14.90;10.30;;;3.00;99.90;;;;;;5066779;28;20064;-70
2022/03/31 06:42:41;;;;;;;14.60;9.35;;;3.10;99.90;;;;;;5053645;28;20398;-70
2022/03/31 06:45:12;;;;;;;13.45;10.10;;;3.10;99.90;;;;;;5052370;28;20036;-70
2022/03/31 06:47:43;;;;;;;12.48;10.20;;;3.10;99.90;;;;;;5052186;28;20048;-70
2022/03/31 06:50:10;;;;;;;10.73;8.70;;;3.20;99.90;;;;;;5053290;28;20090;-72
2022/03/31 06:52:36;;;;;;;11.57;9.00;;;3.20;99.90;;;;;;5085592;28;20041;-72
2022/03/31 06:55:03;;;;;;;12.23;8.93;;;3.20;99.90;;;;;;5053106;28;20051;-72
2022/03/31 06:57:28;;;;;;;11.93;8.48;;;3.30;99.90;;;;;;5053452;28;20045;-71
2022/03/31 06:59:54;;;;;;;9.98;8.10;;;3.20;99.90;;;;;;5051928;28;20496;-71
2022/03/31 07:02:20;;;;;;;9.10;7.75;;;3.30;99.90;;;;;;5053140;28;20452;-71
2022/03/31 07:04:46;;;;;;;9.70;7.50;;;3.20;99.90;;;;;;5051982;28;20048;-71
2022/03/31 07:07:15;;;;;;;9.52;7.43;;;3.30;99.90;;;;;;5052985;28;20041;-71
2022/03/31 07:09:40;;;;;;;10.90;8.63;;;3.30;99.90;;;;;;5049538;28;20037;-71
2022/03/31 07:12:07;;;;;;;10.77;8.02;;;3.30;99.90;;;;;;5052788;28;20037;-72
2022/03/31 07:14:36;;;;;;;8.95;7.38;;;3.40;99.90;;;;;;5017813;28;20516;-71
2022/03/31 07:17:02;;;;;;;10.05;7.95;;;3.40;99.90;;;;;;5065114;28;20056;-72
2022/03/31 07:19:28;;;;;;;9.38;7.80;;;3.40;99.90;;;;;;5065036;28;20042;-72
2022/03/31 07:21:54;;;;;;;10.52;6.68;;;3.40;99.90;;;;;;5031975;28;20116;-72
2022/03/31 07:24:20;;;;;;;8.35;7.10;;;3.50;99.90;;;;;;5031526;28;20056;-71
2022/03/31 07:26:47;;;;;;;11.77;8.02;;;3.50;99.90;;;;;;5031900;28;20033;-72
2022/03/31 07:29:12;;;;;;;10.23;7.95;;;3.50;99.90;;;;;;5034128;28;20073;-71
2022/03/31 07:31:38;;;;;;;12.30;7.18;;;3.50;99.90;;;;;;5030934;28;20076;-72
2022/03/31 07:34:04;;;;;;;10.32;8.65;;;3.60;99.90;;;;;;5031776;28;20072;-71
2022/03/31 07:36:30;;;;;;;10.52;7.78;;;3.60;99.90;;;;;;5031438;28;20398;-72
2022/03/31 07:38:56;;;;;;;9.40;7.65;;;3.60;99.90;;;;;;5030771;28;20145;-71
2022/03/31 07:41:21;;;;;;;9.18;7.53;;;3.70;99.90;;;;;;5064651;28;20038;-71
2022/03/31 07:43:47;;;;;;;9.32;7.60;;;3.70;99.90;;;;;;5032672;28;20732;-72
2022/03/31 07:46:13;;;;;;;9.73;7.47;;;3.70;99.90;;;;;;5031545;28;20049;-72
2022/03/31 07:48:39;;;;;;;9.63;7.85;;;3.80;99.90;;;;;;5032581;28;20494;-72
2022/03/31 07:51:05;;;;;;;8.13;6.65;;;3.80;99.90;;;;;;5032550;28;20132;-72
2022/03/31 07:53:33;;;;;;;10.10;7.75;;;3.80;99.90;;;;;;5032874;28;20041;-72
2022/03/31 07:56:05;;;;;;;7.18;6.45;;;3.90;99.90;;;;;;5064496;28;20045;-73
2022/03/31 07:58:31;;;;;;;7.20;6.35;;;3.80;99.90;;;;;;5064514;28;20045;-72
2022/03/31 08:00:58;;;;;;;7.55;6.45;;;3.90;99.90;;;;;;5031135;28;20095;-72
2022/03/31 08:03:24;;;;;;;8.25;6.78;;;3.80;99.90;;;;;;5032499;28;20124;-72
2022/03/31 08:05:51;;;;;;;8.02;6.70;;;3.80;99.90;;;;;;5031439;28;20037;-72
2022/03/31 08:08:18;;;;;;;7.35;6.53;;;3.80;99.90;;;;;;5064508;28;20052;-72
2022/03/31 08:10:45;;;;;;;7.85;6.57;;;3.80;99.90;;;;;;5030242;28;20037;-72
2022/03/31 08:13:10;;;;;;;8.30;6.90;;;3.80;99.90;;;;;;5041520;28;20065;-72
2022/03/31 08:15:37;;;;;;;6.85;5.82;;;3.80;99.90;;;;;;5050991;28;20508;-72
2022/03/31 08:18:04;;;;;;;7.15;6.25;;;3.80;99.90;;;;;;5052241;28;20033;-72
2022/03/31 08:20:30;;;;;;;7.15;6.45;;;3.80;99.90;;;;;;5052311;28;20041;-72
2022/03/31 08:22:56;;;;;;;7.10;6.40;;;3.80;99.90;;;;;;5048388;28;20047;-72
2022/03/31 08:25:22;;;;;;;7.05;6.35;;;3.80;99.90;;;;;;5050543;28;20665;-72
2022/03/31 08:27:48;;;;;;;7.70;6.90;;;3.90;99.90;;;;;;5051114;28;20048;-72
2022/03/31 08:30:18;;;;;;;8.82;6.60;;;3.90;99.90;;;;;;5049606;28;20476;-73
2022/03/31 08:32:46;;;;;;;7.40;6.50;;;3.90;99.90;;;;;;5034161;28;20428;-73
2022/03/31 08:35:13;;;;;;;7.45;6.63;;;4.00;99.90;;;;;;5050810;28;20037;-72
2022/03/31 08:37:40;;;;;;;8.13;6.85;;;4.00;99.90;;;;;;5050783;28;20487;-72
2022/03/31 08:40:08;;;;;;;6.80;6.13;;;4.00;99.90;;;;;;5049843;28;20178;-72
2022/03/31 08:42:35;;;;;;;8.80;7.43;;;4.00;99.90;;;;;;5050646;28;20560;-72
2022/03/31 08:45:01;;;;;;;7.93;6.95;;;4.10;99.90;;;;;;5054124;28;20116;-75
2022/03/31 08:47:27;;;;;;;8.60;7.40;;;4.00;99.90;;;;;;5055593;28;20037;-74
2022/03/31 08:49:57;;;;;;;7.70;6.90;;;4.00;99.90;;;;;;5055657;28;20041;-75
2022/03/31 08:52:23;;;;;;;8.07;7.03;;;4.00;99.90;;;;;;5054287;28;20076;-74
2022/03/31 08:54:49;;;;;;;8.80;7.43;;;4.00;99.90;;;;;;5055798;28;20051;-72
2022/03/31 08:57:16;;;;;;;8.73;7.82;;;4.00;99.90;;;;;;5037435;28;20041;-73
2022/03/31 08:59:43;;;;;;;8.32;7.03;;;4.00;99.90;;;;;;5054874;28;20102;-72
2022/03/31 09:02:21;;;;;;;8.40;7.60;;;4.00;99.90;;;;;;5054302;28;20437;-72
2022/03/31 09:04:47;;;;;;;8.73;7.60;;;3.90;99.90;;;;;;5054372;28;20045;-72
2022/03/31 09:07:12;;;;;;;7.55;6.63;;;4.00;99.90;;;;;;5053894;28;20040;-72
2022/03/31 09:09:46;;;;;;;7.57;6.80;;;3.90;99.90;;;;;;5051765;28;20048;-72
2022/03/31 09:12:12;;;;;;;7.00;6.25;;;3.90;99.90;;;;;;5053887;28;20049;-71
2022/03/31 09:14:38;;;;;;;9.18;7.05;;;4.00;99.90;;;;;;5054162;28;20110;-70
2022/03/31 09:17:15;;;;;;;8.00;5.88;;;4.00;99.90;;;;;;5053773;28;20081;-70
2022/03/31 09:19:43;;;;;;;7.28;6.45;;;4.00;99.90;;;;;;5053900;28;20041;-71
2022/03/31 09:22:09;;;;;;;8.68;6.78;;;4.00;99.90;;;;;;5053933;28;20168;-70
2022/03/31 09:24:35;;;;;;;7.15;6.20;;;4.00;99.90;;;;;;5053694;28;20095;-70
2022/03/31 09:27:04;;;;;;;6.22;5.63;;;4.00;99.90;;;;;;5053782;28;20114;-70
2022/03/31 09:29:32;;;;;;;8.55;6.32;;;4.00;99.90;;;;;;5055072;28;20045;-70
2022/03/31 09:32:12;;;;;;;6.40;5.70;;;4.10;99.90;;;;;;5054813;28;20068;-72
2022/03/31 09:34:48;;;;;;;6.72;6.03;;;4.10;99.90;;;;;;5053948;28;20355;-72
2022/03/31 09:37:15;;;;;;;7.05;5.72;;;4.10;99.90;;;;;;5053620;28;20178;-73
2022/03/31 09:39:41;;;;;;;6.25;5.35;;;4.20;99.90;;;;;;5034983;28;20103;-74
2022/03/31 09:42:11;;;;;;;6.38;5.20;;;4.20;99.90;;;;;;5053768;28;20075;-73
2022/03/31 09:44:38;;;;;;;5.47;4.70;;;4.30;99.90;;;;;;5053514;28;20372;-71
2022/03/31 09:47:04;;;;;;;5.30;4.10;;;4.30;99.90;;;;;;5053110;28;20045;-70
2022/03/31 09:49:29;;;;;;;5.53;4.05;;;4.30;99.90;;;;;;5054596;28;20040;-70
2022/03/31 09:51:58;;;;;;;4.93;3.95;;;4.40;99.90;;;;;;5053177;28;20048;-73
2022/03/31 09:54:27;;;;;;;4.45;3.15;;;4.30;99.90;;;;;;5054055;28;20489;-71
2022/03/31 09:56:57;;;;;;;4.88;4.10;;;4.30;99.90;;;;;;5020075;28;20044;-73
2022/03/31 09:59:32;;;;;;;5.20;3.90;;;4.40;99.90;;;;;;5054166;28;20649;-72
2022/03/31 10:01:59;;;;;;;4.80;4.07;;;4.50;99.90;;;;;;5052847;28;20112;-72
2022/03/31 10:04:26;;;;;;;5.40;4.15;;;4.50;99.90;;;;;;5053416;28;20063;-72
2022/03/31 10:06:52;;;;;;;4.70;4.00;;;4.50;99.90;;;;;;5054061;28;20098;-73
2022/03/31 10:09:19;;;;;;;5.03;4.10;;;4.50;99.90;;;;;;5051982;28;20090;-70
2022/03/31 10:11:50;;;;;;;5.25;4.10;;;4.40;99.90;;;;;;5053995;28;20041;-71
2022/03/31 10:14:22;;;;;;;6.25;4.03;;;4.50;99.90;;;;;;5053931;28;20045;-71
2022/03/31 10:17:06;;;;;;;6.47;4.55;;;4.50;99.90;;;;;;5052733;28;20085;-71
2022/03/31 10:19:37;;;;;;;6.57;4.80;;;4.50;99.90;;;;;;5052605;28;20037;-70
2022/03/31 10:22:10;;;;;;;7.85;5.57;;;4.50;99.90;;;;;;5086395;28;20365;-70
2022/03/31 10:24:42;;;;;;;8.02;6.22;;;4.50;99.90;;;;;;5052667;28;20419;-73
2022/03/31 10:27:10;;;;;;;8.02;6.10;;;4.40;99.90;;;;;;5086199;28;20158;-71
2022/03/31 10:29:42;;;;;;;9.70;7.30;;;4.40;99.90;;;;;;5086090;28;20045;-70
2022/03/31 10:32:22;;;;;;;9.43;7.07;;;4.40;99.90;;;;;;5052663;28;20127;-72
2022/03/31 10:34:53;;;;;;;;;;;4.40;99.90;;;;;;5086551;28;20363;-71
2022/03/31 10:37:37;;;;;;;11.55;8.13;;;4.30;99.90;;;;;;5086115;28;20316;-72
2022/03/31 10:40:12;;;;;;;11.20;8.05;;;4.30;99.90;;;;;;5048753;28;20106;-71
2022/03/31 10:42:39;;;;;;;12.15;8.32;;;4.30;99.90;;;;;;5053528;28;20402;-71
2022/03/31 10:45:10;;;;;;;10.40;8.07;;;4.30;99.90;;;;;;5051920;28;20481;-71
2022/03/31 10:47:37;;;;;;;8.90;7.00;;;4.30;99.90;;;;;;5053429;28;20033;-70
2022/03/31 10:50:04;;;;;;;10.65;7.88;;;4.20;99.90;;;;;;5052301;28;20048;-71
2022/03/31 10:52:32;;;;;;;8.70;6.60;;;4.10;99.90;;;;;;5052079;28;20048;-72
2022/03/31 10:55:32;;;;;;;7.53;5.95;;;4.10;99.90;;;;;;5053269;28;20037;-71
2022/03/31 10:57:58;;;;;;;8.77;6.70;;;3.90;99.90;;;;;;5051685;28;20037;-71
2022/03/31 11:00:24;;;;;;;6.65;5.32;;;3.90;99.90;;;;;;5051761;28;20126;-70
2022/03/31 11:02:55;;;;;;;7.88;5.93;;;3.80;99.90;;;;;;5051514;28;20473;-70
2022/03/31 11:05:25;;;;;;;8.27;6.30;;;3.80;99.90;;;;;;5052947;28;20048;-70
2022/03/31 11:08:05;;;;;;;8.15;5.57;;;3.70;99.90;;;;;;5052564;28;20044;-71
2022/03/31 11:10:42;;;;;;;8.45;6.10;;;3.60;99.90;;;;;;5033143;28;20136;-70
2022/03/31 11:13:08;;;;;;;8.10;6.13;;;3.60;99.90;;;;;;5048485;28;20115;-70
2022/03/31 11:15:34;;;;;;;7.78;5.80;;;3.50;99.90;;;;;;5053059;28;20076;-70
2022/03/31 11:18:01;;;;;;;7.72;6.05;;;3.40;99.90;;;;;;5051754;28;20521;-70
2022/03/31 11:20:27;;;;;;;6.78;5.07;;;3.40;99.90;;;;;;5051755;28;20102;-71
2022/03/31 11:22:56;;;;;;;7.03;5.90;;;3.30;99.90;;;;;;5052293;28;20102;-71
2022/03/31 11:25:23;;;;;;;7.05;5.68;;;3.30;99.90;;;;;;5051513;28;20049;-68
2022/03/31 11:27:50;;;;;;;7.28;6.00;;;3.30;99.90;;;;;;5051508;28;20045;-72
2022/03/31 11:30:25;;;;;;;8.55;7.32;;;3.30;99.90;;;;;;5051701;28;20362;-69
2022/03/31 11:32:58;;;;;;;7.88;5.93;;;3.30;99.90;;;;;;5052593;28;20044;-68
2022/03/31 11:35:28;;;;;;;8.02;6.28;;;3.30;99.90;;;;;;5051325;28;20041;-70
2022/03/31 11:38:02;;;;;;;7.03;4.78;;;3.20;99.90;;;;;;5052691;28;20032;-68
2022/03/31 11:40:32;;;;;;;8.18;5.93;;;3.10;99.90;;;;;;5050145;28;20051;-69
2022/03/31 11:43:03;;;;;;;8.63;6.32;;;3.00;99.90;;;;;;5051191;28;20044;-70
2022/03/31 11:45:37;;;;;;;6.97;5.72;;;2.90;99.90;;;;;;5052524;28;20543;-70
2022/03/31 11:48:13;;;;;;;7.00;5.82;;;2.80;99.90;;;;;;5052612;28;20041;-70
2022/03/31 11:50:56;;;;;;;9.43;6.15;;;2.70;99.90;;;;;;5051241;28;20485;-70
2022/03/31 11:53:31;;;;;;;7.72;5.60;;;2.60;99.90;;;;;;5051134;28;20048;-70
2022/03/31 11:56:06;;;;;;;8.30;6.50;;;2.60;99.90;;;;;;5051462;28;20094;-70
2022/03/31 11:58:34;;;;;;;6.55;5.32;;;2.60;99.90;;;;;;5051134;28;20081;-69
2022/03/31 12:01:00;;;;;;;7.63;5.70;;;2.50;99.90;;;;;;5051045;28;20037;-69
2022/03/31 12:03:35;;;;;;;7.35;5.80;;;2.40;99.90;;;;;;5052359;28;20102;-68
2022/03/31 12:06:03;;;;;;;8.60;6.40;;;2.30;99.90;;;;;;5051396;28;20041;-68
2022/03/31 12:08:29;;;;;;;8.52;5.68;;;2.30;99.90;;;;;;5051005;28;20077;-67
2022/03/31 12:10:56;;;;;;;7.22;5.25;;;2.20;99.90;;;;;;5049182;28;20053;-66
2022/03/31 12:13:23;;;;;;;6.43;5.13;;;2.10;99.90;;;;;;5048648;28;20604;-66
2022/03/31 12:15:49;;;;;;;6.47;4.85;;;2.10;99.90;;;;;;5050936;28;20104;-65
2022/03/31 12:18:18;;;;;;;6.85;5.13;;;2.00;99.90;;;;;;5052707;28;20120;-66
2022/03/31 12:20:49;;;;;;;7.00;5.40;;;1.90;99.90;;;;;;5055896;28;20128;-66
2022/03/31 12:23:24;;;;;;;6.68;4.90;;;1.90;99.90;;;;;;5055004;28;20051;-67
2022/03/31 12:25:50;;;;;;;7.50;5.45;;;1.80;99.90;;;;;;5054708;28;20053;-67
2022/03/31 12:28:20;;;;;;;8.00;5.68;;;1.80;99.90;;;;;;5055771;28;20041;-69
2022/03/31 12:30:48;;;;;;;8.75;5.80;;;1.70;99.90;;;;;;5054934;28;20037;-69
2022/03/31 12:33:34;;;;;;;6.72;5.32;;;1.60;99.90;;;;;;5054713;28;20041;-69
2022/03/31 12:36:05;;;;;;;7.70;5.45;;;1.60;99.90;;;;;;5055763;28;20045;-70
2022/03/31 12:38:35;;;;;;;7.15;5.55;;;1.60;99.90;;;;;;5054291;28;20048;-72
2022/03/31 12:41:01;;;;;;;6.70;5.32;;;1.60;99.90;;;;;;5052198;28;20045;-72
2022/03/31 12:43:27;;;;;;;8.07;5.55;;;1.50;99.90;;;;;;5055931;28;20041;-71
2022/03/31 12:45:53;;;;;;;7.78;5.60;;;1.50;99.90;;;;;;5037894;28;20044;-73
2022/03/31 12:48:19;;;;;;;7.43;5.40;;;1.50;99.90;;;;;;5054249;28;20408;-69
2022/03/31 12:50:46;;;;;;;8.63;6.45;;;1.50;99.90;;;;;;5054481;28;20467;-66
2022/03/31 12:53:12;;;;;;;8.10;5.57;;;1.50;99.90;;;;;;5055376;28;20049;-67
2022/03/31 12:55:43;;;;;;;7.63;5.57;;;1.50;99.90;;;;;;5054464;28;20489;-66
2022/03/31 12:58:10;;;;;;;8.10;5.88;;;1.50;99.90;;;;;;5054092;28;20053;-66
2022/03/31 13:00:36;;;;;;;7.85;4.90;;;1.50;99.90;;;;;;5055255;28;20064;-66
2022/03/31 13:03:03;;;;;;;7.45;5.63;;;1.50;99.90;;;;;;5054242;28;20041;-67